Terminal Aerodrome Forecast
Issued by NWS

Home | Current Version | Previous Version | Graphics & Text | Print | Product List | Glossary On
Versions: 1 2 3 4 5 6 7 8 9 10 11 12 13 14 15 16 17
387
FTUS41 KCLE 192340
TAFFDY
TAF
KFDY 192340Z 2000/2024 27012G20KT P6SM SCT025 BKN040
     FM200200 27008KT P6SM SCT020 SCT070
     FM200700 30006KT P6SM BKN008 OVC015
     FM201300 36005KT P6SM BKN008 OVC015
     FM201400 04005KT P6SM BKN015 OVC025
     FM202200 05008KT P6SM BKN035=

USA.gov is the U.S. government's official web portal to all federal, state and local government web resources and services.